sensor_id;sensor_type;location;lat;lon;timestamp;pressure;altitude;pressure_sealevel;temperature;humidity
9421;BME280;4749;51.398;5.466;2023-04-29T00:02:06;101259.00;;;11.91;100.00
9421;BME280;4749;51.398;5.466;2023-04-29T00:04:33;101255.50;;;11.91;100.00
9421;BME280;4749;51.398;5.466;2023-04-29T00:07:01;101251.13;;;11.90;100.00
9421;BME280;4749;51.398;5.466;2023-04-29T00:09:28;101258.13;;;11.86;100.00
9421;BME280;4749;51.398;5.466;2023-04-29T00:11:55;101256.34;;;11.83;100.00
9421;BME280;4749;51.398;5.466;2023-04-29T00:14:22;101258.09;;;11.83;100.00
9421;BME280;4749;51.398;5.466;2023-04-29T00:16:50;101251.06;;;11.82;100.00
9421;BME280;4749;51.398;5.466;2023-04-29T00:19:17;101254.59;;;11.81;100.00
9421;BME280;4749;51.398;5.466;2023-04-29T00:21:44;101258.09;;;11.80;100.00
9421;BME280;4749;51.398;5.466;2023-04-29T00:24:11;101266.84;;;11.79;100.00
9421;BME280;4749;51.398;5.466;2023-04-29T00:26:38;101258.94;;;11.77;100.00
9421;BME280;4749;51.398;5.466;2023-04-29T00:29:07;101268.56;;;11.75;100.00
9421;BME280;4749;51.398;5.466;2023-04-29T00:31:34;101266.81;;;11.71;100.00
9421;BME280;4749;51.398;5.466;2023-04-29T00:34:01;101266.78;;;11.67;100.00
9421;BME280;4749;51.398;5.466;2023-04-29T00:36:28;101269.41;;;11.64;100.00
9421;BME280;4749;51.398;5.466;2023-04-29T00:38:57;101278.19;;;11.61;100.00
9421;BME280;4749;51.398;5.466;2023-04-29T00:41:25;101283.41;;;11.56;100.00
9421;BME280;4749;51.398;5.466;2023-04-29T00:43:52;101275.50;;;11.53;100.00
9421;BME280;4749;51.398;5.466;2023-04-29T00:46:19;101284.28;;;11.52;100.00
9421;BME280;4749;51.398;5.466;2023-04-29T00:48:46;101277.22;;;11.48;100.00
9421;BME280;4749;51.398;5.466;2023-04-29T00:51:13;101279.81;;;11.42;100.00
9421;BME280;4749;51.398;5.466;2023-04-29T00:53:43;101282.41;;;11.38;100.00
9421;BME280;4749;51.398;5.466;2023-04-29T00:56:10;101280.63;;;11.32;100.00
9421;BME280;4749;51.398;5.466;2023-04-29T00:58:42;101288.50;;;11.29;100.00
9421;BME280;4749;51.398;5.466;2023-04-29T01:01:16;101284.09;;;11.26;100.00
9421;BME280;4749;51.398;5.466;2023-04-29T01:03:44;101289.34;;;11.25;100.00
9421;BME280;4749;51.398;5.466;2023-04-29T01:15:08;101295.47;;;11.24;100.00
9421;BME280;4749;51.398;5.466;2023-04-29T01:17:43;101311.25;;;11.22;100.00
9421;BME280;4749;51.398;5.466;2023-04-29T01:20:14;101313.84;;;11.18;100.00
9421;BME280;4749;51.398;5.466;2023-04-29T01:22:42;101317.34;;;11.15;100.00
9421;BME280;4749;51.398;5.466;2023-04-29T01:25:09;101317.34;;;11.12;100.00
9421;BME280;4749;51.398;5.466;2023-04-29T01:30:52;101319.91;;;11.08;100.00
9421;BME280;4749;51.398;5.466;2023-04-29T01:42:39;101324.28;;;11.04;100.00
9421;BME280;4749;51.398;5.466;2023-04-29T01:45:10;101328.66;;;11.04;100.00
9421;BME280;4749;51.398;5.466;2023-04-29T01:47:41;101329.53;;;11.03;100.00
9421;BME280;4749;51.398;5.466;2023-04-29T01:50:09;101336.50;;;11.00;100.00
9421;BME280;4749;51.398;5.466;2023-04-29T01:52:37;101337.38;;;10.96;100.00
9421;BME280;4749;51.398;5.466;2023-04-29T01:55:05;101338.19;;;10.92;100.00
9421;BME280;4749;51.398;5.466;2023-04-29T01:57:32;101334.69;;;10.90;100.00
9421;BME280;4749;51.398;5.466;2023-04-29T02:00:00;101335.56;;;10.91;100.00
9421;BME280;4749;51.398;5.466;2023-04-29T02:02:27;101338.19;;;10.89;100.00
9421;BME280;4749;51.398;5.466;2023-04-29T02:04:55;101343.44;;;10.91;100.00
9421;BME280;4749;51.398;5.466;2023-04-29T02:07:22;101339.06;;;10.90;100.00
9421;BME280;4749;51.398;5.466;2023-04-29T02:09:49;101345.19;;;10.87;100.00
9421;BME280;4749;51.398;5.466;2023-04-29T02:12:17;101352.19;;;10.85;100.00
9421;BME280;4749;51.398;5.466;2023-04-29T02:14:44;101348.69;;;10.85;100.00
9421;BME280;4749;51.398;5.466;2023-04-29T02:17:13;101352.19;;;10.85;100.00
9421;BME280;4749;51.398;5.466;2023-04-29T02:19:40;101353.94;;;10.85;100.00
9421;BME280;4749;51.398;5.466;2023-04-29T02:22:07;101354.78;;;10.84;100.00
9421;BME280;4749;51.398;5.466;2023-04-29T02:24:35;101358.28;;;10.84;100.00
9421;BME280;4749;51.398;5.466;2023-04-29T02:27:02;101367.09;;;10.85;100.00
9421;BME280;4749;51.398;5.466;2023-04-29T02:29:31;101366.16;;;10.83;100.00
9421;BME280;4749;51.398;5.466;2023-04-29T02:31:59;101365.28;;;10.84;100.00
9421;BME280;4749;51.398;5.466;2023-04-29T02:34:26;101364.41;;;10.83;100.00
9421;BME280;4749;51.398;5.466;2023-04-29T02:36:53;101373.19;;;10.82;100.00
9421;BME280;4749;51.398;5.466;2023-04-29T02:39:20;101369.66;;;10.82;100.00
9421;BME280;4749;51.398;5.466;2023-04-29T02:41:48;101374.06;;;10.84;100.00
9421;BME280;4749;51.398;5.466;2023-04-29T02:44:15;101384.66;;;10.89;100.00
9421;BME280;4749;51.398;5.466;2023-04-29T02:46:42;101389.03;;;10.88;100.00
9421;BME280;4749;51.398;5.466;2023-04-29T02:49:12;101392.53;;;10.86;100.00
9421;BME280;4749;51.398;5.466;2023-04-29T02:51:39;101393.38;;;10.85;100.00
9421;BME280;4749;51.398;5.466;2023-04-29T02:54:07;101393.38;;;10.85;100.00
9421;BME280;4749;51.398;5.466;2023-04-29T02:56:34;101394.19;;;10.79;100.00
9421;BME280;4749;51.398;5.466;2023-04-29T02:59:01;101400.34;;;10.80;100.00
9421;BME280;4749;51.398;5.466;2023-04-29T03:01:28;101397.69;;;10.77;100.00
9421;BME280;4749;51.398;5.466;2023-04-29T03:03:55;101401.19;;;10.77;100.00
9421;BME280;4749;51.398;5.466;2023-04-29T03:06:23;101409.97;;;10.79;100.00
9421;BME280;4749;51.398;5.466;2023-04-29T03:08:50;101404.72;;;10.78;100.00
9421;BME280;4749;51.398;5.466;2023-04-29T03:11:19;101399.47;;;10.79;100.00
9421;BME280;4749;51.398;5.466;2023-04-29T03:13:46;101406.47;;;10.79;100.00
9421;BME280;4749;51.398;5.466;2023-04-29T03:16:13;101401.19;;;10.77;100.00
9421;BME280;4749;51.398;5.466;2023-04-29T03:18:43;101400.31;;;10.77;100.00
9421;BME280;4749;51.398;5.466;2023-04-29T03:21:10;101406.41;;;10.76;100.00
9421;BME280;4749;51.398;5.466;2023-04-29T03:23:38;101408.16;;;10.74;100.00
9421;BME280;4749;51.398;5.466;2023-04-29T03:26:08;101408.16;;;10.74;100.00
9421;BME280;4749;51.398;5.466;2023-04-29T03:28:36;101414.28;;;10.73;100.00
9421;BME280;4749;51.398;5.466;2023-04-29T03:31:03;101408.16;;;10.72;100.00
9421;BME280;4749;51.398;5.466;2023-04-29T03:33:30;101416.03;;;10.72;100.00
9421;BME280;4749;51.398;5.466;2023-04-29T03:35:58;101418.66;;;10.72;100.00
9421;BME280;4749;51.398;5.466;2023-04-29T03:38:25;101414.28;;;10.71;100.00
9421;BME280;4749;51.398;5.466;2023-04-29T03:40:52;101425.66;;;10.68;100.00
9421;BME280;4749;51.398;5.466;2023-04-29T03:43:19;101425.66;;;10.68;100.00
9421;BME280;4749;51.398;5.466;2023-04-29T03:45:46;101424.78;;;10.68;100.00
9421;BME280;4749;51.398;5.466;2023-04-29T03:48:13;101416.84;;;10.66;100.00
9421;BME280;4749;51.398;5.466;2023-04-29T03:50:40;101422.09;;;10.66;100.00
9421;BME280;4749;51.398;5.466;2023-04-29T03:53:07;101427.34;;;10.66;100.00
9421;BME280;4749;51.398;5.466;2023-04-29T03:55:34;101427.34;;;10.66;100.00
9421;BME280;4749;51.398;5.466;2023-04-29T03:58:01;101425.59;;;10.67;100.00
9421;BME280;4749;51.398;5.466;2023-04-29T04:00:30;101431.72;;;10.66;100.00
9421;BME280;4749;51.398;5.466;2023-04-29T04:02:57;101435.22;;;10.63;100.00
9421;BME280;4749;51.398;5.466;2023-04-29T04:05:26;101439.56;;;10.60;100.00
9421;BME280;4749;51.398;5.466;2023-04-29T04:07:54;101434.31;;;10.60;100.00
9421;BME280;4749;51.398;5.466;2023-04-29T04:10:21;101442.19;;;10.60;100.00
9421;BME280;4749;51.398;5.466;2023-04-29T04:12:48;101447.41;;;10.58;100.00
9421;BME280;4749;51.398;5.466;2023-04-29T04:15:16;101449.19;;;10.59;100.00
9421;BME280;4749;51.398;5.466;2023-04-29T04:17:43;101452.66;;;10.58;100.00
9421;BME280;4749;51.398;5.466;2023-04-29T04:20:11;101455.31;;;10.58;100.00
9421;BME280;4749;51.398;5.466;2023-04-29T04:22:39;101457.03;;;10.56;100.00
9421;BME280;4749;51.398;5.466;2023-04-29T04:25:06;101463.19;;;10.57;100.00
9421;BME280;4749;51.398;5.466;2023-04-29T04:27:34;101458.78;;;10.56;100.00
9421;BME280;4749;51.398;5.466;2023-04-29T04:30:01;101464.03;;;10.54;100.00
9421;BME280;4749;51.398;5.466;2023-04-29T04:32:28;101466.69;;;10.56;100.00
9421;BME280;4749;51.398;5.466;2023-04-29T04:34:55;101467.53;;;10.55;100.00
9421;BME280;4749;51.398;5.466;2023-04-29T04:37:23;101476.31;;;10.55;100.00
9421;BME280;4749;51.398;5.466;2023-04-29T04:39:50;101474.56;;;10.57;100.00
9421;BME280;4749;51.398;5.466;2023-04-29T04:42:17;101471.97;;;10.59;100.00
9421;BME280;4749;51.398;5.466;2023-04-29T04:44:44;101481.66;;;10.60;100.00
9421;BME280;4749;51.398;5.466;2023-04-29T04:47:11;101483.41;;;10.62;100.00
9421;BME280;4749;51.398;5.466;2023-04-29T04:49:38;101482.56;;;10.63;100.00
9421;BME280;4749;51.398;5.466;2023-04-29T04:52:05;101499.22;;;10.65;100.00
9421;BME280;4749;51.398;5.466;2023-04-29T04:54:32;101497.47;;;10.66;100.00
9421;BME280;4749;51.398;5.466;2023-04-29T04:57:00;101504.53;;;10.68;100.00
9421;BME280;4749;51.398;5.466;2023-04-29T04:59:28;101510.69;;;10.70;100.00
9421;BME280;4749;51.398;5.466;2023-04-29T05:01:55;101507.19;;;10.70;100.00
9421;BME280;4749;51.398;5.466;2023-04-29T05:04:23;101511.56;;;10.71;100.00
9421;BME280;4749;51.398;5.466;2023-04-29T05:06:50;101515.97;;;10.70;100.00
9421;BME280;4749;51.398;5.466;2023-04-29T05:09:17;101517.69;;;10.70;100.00
9421;BME280;4749;51.398;5.466;2023-04-29T05:11:44;101509.81;;;10.68;100.00
9421;BME280;4749;51.398;5.466;2023-04-29T05:14:12;101519.44;;;10.68;100.00
9421;BME280;4749;51.398;5.466;2023-04-29T05:16:39;101518.53;;;10.67;100.00
9421;BME280;4749;51.398;5.466;2023-04-29T05:19:06;101520.25;;;10.65;100.00
9421;BME280;4749;51.398;5.466;2023-04-29T05:21:35;101519.38;;;10.65;100.00
9421;BME280;4749;51.398;5.466;2023-04-29T05:24:02;101522.03;;;10.66;100.00
9421;BME280;4749;51.398;5.466;2023-04-29T05:26:29;101527.25;;;10.65;100.00
9421;BME280;4749;51.398;5.466;2023-04-29T05:28:56;101534.28;;;10.66;100.00
9421;BME280;4749;51.398;5.466;2023-04-29T05:31:23;101529.91;;;10.66;100.00
9421;BME280;4749;51.398;5.466;2023-04-29T05:33:50;101535.22;;;10.69;100.00
9421;BME280;4749;51.398;5.466;2023-04-29T05:36:17;101536.13;;;10.71;100.00
9421;BME280;4749;51.398;5.466;2023-04-29T05:38:44;101538.78;;;10.73;100.00
9421;BME280;4749;51.398;5.466;2023-04-29T05:41:11;101543.16;;;10.74;100.00
9421;BME280;4749;51.398;5.466;2023-04-29T05:43:40;101547.59;;;10.77;100.00
9421;BME280;4749;51.398;5.466;2023-04-29T05:46:07;101547.59;;;10.77;100.00
9421;BME280;4749;51.398;5.466;2023-04-29T05:48:34;101551.13;;;10.79;100.00
9421;BME280;4749;51.398;5.466;2023-04-29T05:51:01;101554.66;;;10.81;100.00
9421;BME280;4749;51.398;5.466;2023-04-29T05:53:28;101560.81;;;10.83;100.00
9421;BME280;4749;51.398;5.466;2023-04-29T05:55:56;101566.06;;;10.83;100.00
9421;BME280;4749;51.398;5.466;2023-04-29T05:58:23;101569.63;;;10.85;100.00
9421;BME280;4749;51.398;5.466;2023-04-29T06:00:51;101572.28;;;10.86;100.00
9421;BME280;4749;51.398;5.466;2023-04-29T06:03:18;101578.41;;;10.85;100.00
9421;BME280;4749;51.398;5.466;2023-04-29T06:05:45;101576.59;;;10.84;100.00
9421;BME280;4749;51.398;5.466;2023-04-29T06:08:13;101581.00;;;10.84;100.00
9421;BME280;4749;51.398;5.466;2023-04-29T06:10:40;101584.53;;;10.86;100.00
9421;BME280;4749;51.398;5.466;2023-04-29T06:13:07;101585.47;;;10.91;100.00
9421;BME280;4749;51.398;5.466;2023-04-29T06:15:34;101590.78;;;10.94;100.00
9421;BME280;4749;51.398;5.466;2023-04-29T06:18:01;101585.53;;;10.95;100.00
9421;BME280;4749;51.398;5.466;2023-04-29T06:20:29;101592.56;;;10.96;100.00
9421;BME280;4749;51.398;5.466;2023-04-29T06:22:56;101604.06;;;11.02;100.00
9421;BME280;4749;51.398;5.466;2023-04-29T06:25:23;101598.81;;;11.05;100.00
9421;BME280;4749;51.398;5.466;2023-04-29T06:27:50;101607.59;;;11.05;100.00
9421;BME280;4749;51.398;5.466;2023-04-29T06:30:17;101605.00;;;11.10;100.00
9421;BME280;4749;51.398;5.466;2023-04-29T06:32:44;101610.25;;;11.10;100.00
9421;BME280;4749;51.398;5.466;2023-04-29T06:35:11;101613.84;;;11.15;100.00
9421;BME280;4749;51.398;5.466;2023-04-29T06:37:38;101621.81;;;11.19;100.00
9421;BME280;4749;51.398;5.466;2023-04-29T06:40:06;101625.38;;;11.23;100.00
9421;BME280;4749;51.398;5.466;2023-04-29T06:42:33;101619.22;;;11.24;100.00
9421;BME280;4749;51.398;5.466;2023-04-29T06:45:01;101622.75;;;11.24;100.00
9421;BME280;4749;51.398;5.466;2023-04-29T06:47:28;101631.56;;;11.28;100.00
9421;BME280;4749;51.398;5.466;2023-04-29T06:49:55;101628.97;;;11.33;100.00
9421;BME280;4749;51.398;5.466;2023-04-29T06:52:22;101638.66;;;11.34;100.00
9421;BME280;4749;51.398;5.466;2023-04-29T06:54:49;101638.66;;;11.34;100.00
9421;BME280;4749;51.398;5.466;2023-04-29T06:57:16;101644.84;;;11.37;100.00
9421;BME280;4749;51.398;5.466;2023-04-29T06:59:43;101644.00;;;11.41;100.00
9421;BME280;4749;51.398;5.466;2023-04-29T07:02:10;101652.84;;;11.45;100.00
9421;BME280;4749;51.398;5.466;2023-04-29T07:04:37;101657.25;;;11.49;100.00
9421;BME280;4749;51.398;5.466;2023-04-29T07:07:05;101659.03;;;11.51;100.00
9421;BME280;4749;51.398;5.466;2023-04-29T07:09:32;101659.97;;;11.55;100.00
9421;BME280;4749;51.398;5.466;2023-04-29T07:12:00;101662.69;;;11.61;100.00
9421;BME280;4749;51.398;5.466;2023-04-29T07:14:28;101669.75;;;11.67;100.00
9421;BME280;4749;51.398;5.466;2023-04-29T07:16:55;101669.97;;;11.82;100.00
9421;BME280;4749;51.398;5.466;2023-04-29T07:19:22;101660.41;;;11.92;100.00
9421;BME280;4749;51.398;5.466;2023-04-29T07:21:49;101671.91;;;11.98;100.00
9421;BME280;4749;51.398;5.466;2023-04-29T07:24:16;101669.44;;;12.18;100.00
9421;BME280;4749;51.398;5.466;2023-04-29T07:26:44;101671.41;;;12.42;100.00
9421;BME280;4749;51.398;5.466;2023-04-29T07:29:11;101677.75;;;12.62;100.00
9421;BME280;4749;51.398;5.466;2023-04-29T07:31:38;101680.50;;;12.79;100.00
9421;BME280;4749;51.398;5.466;2023-04-29T07:34:05;101679.69;;;12.94;100.00
9421;BME280;4749;51.398;5.466;2023-04-29T07:36:32;101682.44;;;13.11;100.00
9421;BME280;4749;51.398;5.466;2023-04-29T07:39:00;101689.63;;;13.30;100.00
9421;BME280;4749;51.398;5.466;2023-04-29T07:41:28;101687.03;;;13.41;100.00
9421;BME280;4749;51.398;5.466;2023-04-29T07:43:55;101695.84;;;13.44;100.00
9421;BME280;4749;51.398;5.466;2023-04-29T07:46:22;101707.31;;;13.48;100.00
9421;BME280;4749;51.398;5.466;2023-04-29T07:48:49;101698.53;;;13.53;100.00
9421;BME280;4749;51.398;5.466;2023-04-29T07:51:16;101696.78;;;13.57;100.00
9421;BME280;4749;51.398;5.466;2023-04-29T07:53:43;101694.19;;;13.66;100.00
9421;BME280;4749;51.398;5.466;2023-04-29T07:56:10;101698.63;;;13.72;100.00
9421;BME280;4749;51.398;5.466;2023-04-29T07:58:37;101702.13;;;13.78;100.00
9421;BME280;4749;51.398;5.466;2023-04-29T08:01:08;101708.31;;;13.87;100.00
9421;BME280;4749;51.398;5.466;2023-04-29T08:03:37;101706.59;;;13.92;100.00
9421;BME280;4749;51.398;5.466;2023-04-29T08:06:08;101704.81;;;13.94;100.00
9421;BME280;4749;51.398;5.466;2023-04-29T08:08:36;101705.72;;;14.00;100.00
9421;BME280;4749;51.398;5.466;2023-04-29T08:11:03;101706.63;;;14.05;100.00
9421;BME280;4749;51.398;5.466;2023-04-29T08:13:31;101706.59;;;14.02;100.00
9421;BME280;4749;51.398;5.466;2023-04-29T08:15:58;101709.22;;;13.93;100.00
9421;BME280;4749;51.398;5.466;2023-04-29T08:18:25;101712.75;;;13.91;100.00
9421;BME280;4749;51.398;5.466;2023-04-29T08:20:52;101711.03;;;13.97;100.00
9421;BME280;4749;51.398;5.466;2023-04-29T08:23:19;101719.88;;;14.13;100.00
9421;BME280;4749;51.398;5.466;2023-04-29T08:25:46;101714.59;;;14.33;100.00
9421;BME280;4749;51.398;5.466;2023-04-29T08:28:14;101710.25;;;14.56;100.00
9421;BME280;4749;51.398;5.466;2023-04-29T08:30:41;101723.47;;;14.84;100.00
9421;BME280;4749;51.398;5.466;2023-04-29T08:33:08;101719.88;;;15.05;100.00
9421;BME280;4749;51.398;5.466;2023-04-29T08:35:35;101726.00;;;15.28;100.00
9421;BME280;4749;51.398;5.466;2023-04-29T08:38:06;101728.63;;;15.48;100.00
9421;BME280;4749;51.398;5.466;2023-04-29T08:40:44;101726.81;;;15.67;100.00
9421;BME280;4749;51.398;5.466;2023-04-29T08:43:13;101732.03;;;15.81;100.00
9421;BME280;4749;51.398;5.466;2023-04-29T08:45:44;101731.09;;;15.92;100.00
9421;BME280;4749;51.398;5.466;2023-04-29T08:48:16;101731.00;;;16.09;100.00
9421;BME280;4749;51.398;5.466;2023-04-29T08:50:44;101731.75;;;16.32;100.00
9421;BME280;4749;51.398;5.466;2023-04-29T08:53:13;101731.63;;;16.46;100.00
9421;BME280;4749;51.398;5.466;2023-04-29T08:55:47;101734.22;;;16.57;100.00
9421;BME280;4749;51.398;5.466;2023-04-29T08:58:15;101742.09;;;16.74;100.00
9421;BME280;4749;51.398;5.466;2023-04-29T09:00:43;101747.22;;;16.92;100.00
9421;BME280;4749;51.398;5.466;2023-04-29T09:03:33;101739.13;;;17.07;100.00
9421;BME280;4749;51.398;5.466;2023-04-29T09:06:04;101750.63;;;17.05;100.00
9421;BME280;4749;51.398;5.466;2023-04-29T09:08:32;101748.78;;;17.13;100.00
9421;BME280;4749;51.398;5.466;2023-04-29T09:11:00;101755.81;;;17.19;100.00
9421;BME280;4749;51.398;5.466;2023-04-29T09:13:30;101752.28;;;17.18;100.00
9421;BME280;4749;51.398;5.466;2023-04-29T09:15:57;101755.72;;;17.28;100.00
9421;BME280;4749;51.398;5.466;2023-04-29T09:18:44;101752.97;;;17.37;100.00
9421;BME280;4749;51.398;5.466;2023-04-29T09:21:22;101754.72;;;17.38;100.00
9421;BME280;4749;51.398;5.466;2023-04-29T09:23:56;101756.56;;;17.31;100.00
9421;BME280;4749;51.398;5.466;2023-04-29T09:26:24;101757.41;;;17.35;100.00
9421;BME280;4749;51.398;5.466;2023-04-29T09:29:12;101762.47;;;17.56;100.00
9421;BME280;4749;51.398;5.466;2023-04-29T09:31:41;101761.44;;;17.69;100.00
9421;BME280;4749;51.398;5.466;2023-04-29T09:34:10;101759.50;;;17.87;100.00
9421;BME280;4749;51.398;5.466;2023-04-29T09:36:49;101768.06;;;18.07;100.00
9421;BME280;4749;51.398;5.466;2023-04-29T09:39:21;101774.16;;;18.17;100.00
9421;BME280;4749;51.398;5.466;2023-04-29T09:44:23;101772.03;;;18.42;100.00
9421;BME280;4749;51.398;5.466;2023-04-29T09:47:09;101781.72;;;18.46;100.00
9421;BME280;4749;51.398;5.466;2023-04-29T09:49:39;101775.56;;;18.41;100.00
9421;BME280;4749;51.398;5.466;2023-04-29T09:52:10;101785.38;;;18.39;100.00
9421;BME280;4749;51.398;5.466;2023-04-29T09:54:41;101775.69;;;18.35;100.00
9421;BME280;4749;51.398;5.466;2023-04-29T09:57:11;101781.94;;;18.31;100.00
9421;BME280;4749;51.398;5.466;2023-04-29T09:59:41;101785.72;;;18.14;100.00
9421;BME280;4749;51.398;5.466;2023-04-29T10:02:16;101785.69;;;18.16;100.00
9421;BME280;4749;51.398;5.466;2023-04-29T10:04:53;101792.13;;;18.01;100.00
9421;BME280;4749;51.398;5.466;2023-04-29T10:07:25;101787.81;;;17.91;100.00
9421;BME280;4749;51.398;5.466;2023-04-29T10:09:54;101798.09;;;18.18;100.00
9421;BME280;4749;51.398;5.466;2023-04-29T10:12:24;101794.84;;;18.58;100.00
9421;BME280;4749;51.398;5.466;2023-04-29T10:15:41;101808.69;;;18.83;100.00
9421;BME280;4749;51.398;5.466;2023-04-29T10:18:20;101805.63;;;18.49;100.00
9421;BME280;4749;51.398;5.466;2023-04-29T10:20:52;101786.47;;;18.24;100.00
9421;BME280;4749;51.398;5.466;2023-04-29T10:23:24;101791.78;;;18.24;100.00
9421;BME280;4749;51.398;5.466;2023-04-29T10:25:52;101799.66;;;18.35;100.00
9421;BME280;4749;51.398;5.466;2023-04-29T10:28:20;101803.06;;;18.44;100.00
9421;BME280;4749;51.398;5.466;2023-04-29T10:30:53;101807.41;;;18.48;100.00
9421;BME280;4749;51.398;5.466;2023-04-29T10:33:22;101804.75;;;18.48;100.00
9421;BME280;4749;51.398;5.466;2023-04-29T10:35:53;101809.97;;;18.56;100.00
9421;BME280;4749;51.398;5.466;2023-04-29T10:38:34;101807.91;;;18.75;100.00
9421;BME280;4749;51.398;5.466;2023-04-29T10:41:27;101813.88;;;18.92;100.00
9421;BME280;4749;51.398;5.466;2023-04-29T10:43:58;101808.91;;;19.22;100.00
9421;BME280;4749;51.398;5.466;2023-04-29T10:46:30;101814.34;;;19.65;100.00
9421;BME280;4749;51.398;5.466;2023-04-29T10:49:02;101806.69;;;19.93;100.00
9421;BME280;4749;51.398;5.466;2023-04-29T10:51:31;101806.38;;;20.07;100.00
9421;BME280;4749;51.398;5.466;2023-04-29T10:54:09;101823.47;;;19.98;100.00
9421;BME280;4749;51.398;5.466;2023-04-29T10:56:47;101818.59;;;19.77;100.00
9421;BME280;4749;51.398;5.466;2023-04-29T10:59:20;101816.41;;;19.51;100.00
9421;BME280;4749;51.398;5.466;2023-04-29T11:01:50;101812.50;;;19.21;100.00
9421;BME280;4749;51.398;5.466;2023-04-29T11:04:22;101814.66;;;18.97;100.00
9421;BME280;4749;51.398;5.466;2023-04-29T11:06:56;101815.09;;;18.71;100.00
9421;BME280;4749;51.398;5.466;2023-04-29T11:09:29;101822.47;;;18.51;100.00
9421;BME280;4749;51.398;5.466;2023-04-29T11:12:04;101824.41;;;18.40;100.00
9421;BME280;4749;51.398;5.466;2023-04-29T11:14:41;101826.97;;;18.47;100.00
9421;BME280;4749;51.398;5.466;2023-04-29T11:17:13;101824.03;;;18.64;100.00
9421;BME280;4749;51.398;5.466;2023-04-29T11:19:48;101831.94;;;18.72;100.00
9421;BME280;4749;51.398;5.466;2023-04-29T11:25:04;101824.13;;;18.60;100.00
9421;BME280;4749;51.398;5.466;2023-04-29T11:27:34;101816.31;;;18.47;100.00
9421;BME280;4749;51.398;5.466;2023-04-29T11:30:04;101824.25;;;18.49;100.00
9421;BME280;4749;51.398;5.466;2023-04-29T11:32:38;101827.75;;;18.54;100.00
9421;BME280;4749;51.398;5.466;2023-04-29T11:35:14;101818.09;;;18.47;100.00
9421;BME280;4749;51.398;5.466;2023-04-29T11:37:45;101824.41;;;18.40;100.00
9421;BME280;4749;51.398;5.466;2023-04-29T11:40:13;101832.50;;;18.34;100.00
9421;BME280;4749;51.398;5.466;2023-04-29T11:42:44;101832.56;;;18.27;100.00
9421;BME280;4749;51.398;5.466;2023-04-29T11:45:12;101828.00;;;18.37;100.00
9421;BME280;4749;51.398;5.466;2023-04-29T11:47:46;101832.13;;;18.60;100.00
9421;BME280;4749;51.398;5.466;2023-04-29T11:50:15;101833.41;;;18.91;100.00
9421;BME280;4749;51.398;5.466;2023-04-29T11:52:48;101836.53;;;19.19;100.00
9421;BME280;4749;51.398;5.466;2023-04-29T11:55:15;101845.03;;;19.39;100.00
9421;BME280;4749;51.398;5.466;2023-04-29T11:57:42;101835.13;;;19.46;100.00
9421;BME280;4749;51.398;5.466;2023-04-29T12:00:11;101836.28;;;19.31;100.00
9421;BME280;4749;51.398;5.466;2023-04-29T12:02:44;101842.00;;;19.10;100.00
9421;BME280;4749;51.398;5.466;2023-04-29T12:05:15;101842.47;;;18.81;100.00
9421;BME280;4749;51.398;5.466;2023-04-29T12:07:43;101835.69;;;18.59;100.00
9421;BME280;4749;51.398;5.466;2023-04-29T12:10:11;101830.47;;;18.51;100.00
9421;BME280;4749;51.398;5.466;2023-04-29T12:12:39;101832.25;;;18.50;100.00
9421;BME280;4749;51.398;5.466;2023-04-29T12:15:12;101827.69;;;18.59;100.00
9421;BME280;4749;51.398;5.466;2023-04-29T12:17:41;101836.47;;;18.68;100.00
9421;BME280;4749;51.398;5.466;2023-04-29T12:20:10;101839.66;;;18.90;100.00
9421;BME280;4749;51.398;5.466;2023-04-29T12:22:38;101837.00;;;19.41;100.00
9421;BME280;4749;51.398;5.466;2023-04-29T12:25:06;101837.00;;;19.89;100.00
9421;BME280;4749;51.398;5.466;2023-04-29T12:27:35;101844.16;;;20.30;100.00
9421;BME280;4749;51.398;5.466;2023-04-29T12:30:07;101843.47;;;20.62;100.00
9421;BME280;4749;51.398;5.466;2023-04-29T12:32:35;101842.88;;;20.87;100.00
9421;BME280;4749;51.398;5.466;2023-04-29T12:35:03;101842.66;;;20.96;100.00
9421;BME280;4749;51.398;5.466;2023-04-29T12:37:31;101845.88;;;21.08;100.00
9421;BME280;4749;51.398;5.466;2023-04-29T12:39:58;101842.03;;;21.20;100.00
9421;BME280;4749;51.398;5.466;2023-04-29T12:42:31;101843.69;;;21.24;100.00
9421;BME280;4749;51.398;5.466;2023-04-29T12:44:59;101843.44;;;21.35;100.00
9421;BME280;4749;51.398;5.466;2023-04-29T12:47:31;101850.41;;;21.42;99.41
9421;BME280;4749;51.398;5.466;2023-04-29T12:50:05;101851.75;;;21.58;97.53
9421;BME280;4749;51.398;5.466;2023-04-29T12:52:33;101855.75;;;21.75;95.60
9421;BME280;4749;51.398;5.466;2023-04-29T12:55:02;101849.22;;;21.85;92.39
9421;BME280;4749;51.398;5.466;2023-04-29T12:57:30;101847.91;;;22.00;91.92
9421;BME280;4749;51.398;5.466;2023-04-29T12:59:58;101851.28;;;22.08;90.63
9421;BME280;4749;51.398;5.466;2023-04-29T13:02:25;101847.31;;;22.21;89.53
9421;BME280;4749;51.398;5.466;2023-04-29T13:04:52;101850.56;;;22.32;89.30
9421;BME280;4749;51.398;5.466;2023-04-29T13:07:20;101840.13;;;22.51;88.86
9421;BME280;4749;51.398;5.466;2023-04-29T13:09:47;101838.66;;;22.69;87.11
9421;BME280;4749;51.398;5.466;2023-04-29T13:12:14;101840.91;;;22.83;86.20
9421;BME280;4749;51.398;5.466;2023-04-29T13:14:41;101846.28;;;22.83;84.15
9421;BME280;4749;51.398;5.466;2023-04-29T13:17:08;101843.97;;;22.72;82.85
9421;BME280;4749;51.398;5.466;2023-04-29T13:19:36;101839.13;;;22.55;81.93
9421;BME280;4749;51.398;5.466;2023-04-29T13:22:17;101839.66;;;22.38;79.98
9421;BME280;4749;51.398;5.466;2023-04-29T13:24:44;101847.41;;;22.18;78.71
9421;BME280;4749;51.398;5.466;2023-04-29T13:27:12;101842.19;;;22.13;78.78
9421;BME280;4749;51.398;5.466;2023-04-29T13:29:39;101847.44;;;22.16;78.19
9421;BME280;4749;51.398;5.466;2023-04-29T13:32:07;101846.63;;;22.14;78.16
9421;BME280;4749;51.398;5.466;2023-04-29T13:34:34;101845.91;;;22.08;77.62
9421;BME280;4749;51.398;5.466;2023-04-29T13:37:02;101846.94;;;22.02;76.74